createdAt,value
2023-08-11T07:58:49.262Z,106.02
2023-08-11T07:59:49.669Z,106.53
2023-08-11T08:00:50.084Z,104.03
2023-08-11T08:01:50.790Z,103.68
2023-08-11T08:02:52.182Z,100.28
2023-08-11T08:03:51.695Z,96.46
2023-08-11T08:04:54.100Z,98.20
2023-08-11T08:05:52.497Z,101.68
2023-08-11T08:06:52.790Z,100.63
2023-08-11T08:07:53.140Z,99.24
2023-08-11T08:08:53.537Z,107.34
2023-08-11T08:09:54.048Z,108.66
2023-08-11T08:10:54.420Z,106.29
2023-08-11T08:11:54.806Z,102.36
2023-08-11T08:12:55.219Z,104.48
2023-08-11T08:13:55.566Z,107.28
2023-08-11T08:14:56.049Z,108.55
2023-08-11T08:15:56.423Z,109.00
2023-08-11T08:16:56.755Z,109.00
2023-08-11T08:17:57.242Z,109.00
2023-08-11T08:18:57.635Z,109.00
2023-08-11T08:19:57.985Z,109.00
2023-08-11T08:20:58.626Z,109.00
2023-08-11T08:21:59.013Z,109.00
2023-08-11T08:22:59.478Z,109.00
2023-08-11T08:24:00.041Z,109.00
2023-08-11T08:25:00.440Z,109.00
2023-08-11T08:26:00.922Z,109.00
2023-08-11T08:27:01.018Z,109.00
2023-08-11T08:28:06.605Z,109.00
2023-08-11T08:29:01.839Z,109.00
2023-08-11T08:30:02.196Z,109.00
2023-08-11T08:31:02.550Z,109.00
2023-08-11T08:31:15.245Z,109.00
2023-08-11T08:32:15.672Z,109.00
2023-08-11T08:33:15.989Z,109.00
2023-08-11T08:34:16.150Z,109.00
2023-08-11T08:35:16.672Z,109.00
2023-08-11T08:36:16.939Z,109.00
2023-08-11T08:37:17.330Z,109.00
2023-08-11T08:38:17.690Z,109.00
2023-08-11T08:39:18.018Z,109.00
2023-08-11T08:40:18.441Z,109.00
2023-08-11T08:41:18.704Z,109.00
2023-08-11T08:42:19.007Z,109.00
2023-08-11T08:43:19.358Z,109.00
2023-08-11T08:44:19.694Z,109.00
2023-08-11T08:45:20.456Z,109.00
2023-08-11T08:46:20.968Z,109.00
2023-08-11T08:47:21.672Z,109.00
2023-08-11T08:48:22.117Z,109.00
2023-08-11T08:49:22.627Z,109.00
2023-08-11T08:50:23.121Z,109.00
2023-08-11T08:51:23.469Z,109.00
2023-08-11T08:52:24.348Z,109.00
2023-08-11T08:53:24.738Z,109.00
2023-08-11T08:54:24.997Z,109.00
2023-08-11T08:55:25.802Z,109.00
2023-08-11T08:56:26.129Z,109.00
2023-08-11T08:57:26.457Z,109.00
2023-08-11T08:58:26.836Z,109.00
2023-08-11T08:59:27.218Z,109.00
2023-08-11T09:00:27.809Z,109.00
2023-08-11T09:01:28.485Z,109.00
2023-08-11T09:02:29.215Z,109.00
2023-08-11T09:03:29.654Z,109.00
2023-08-11T09:03:38.368Z,109.00
2023-08-11T09:04:38.668Z,109.00
2023-08-11T09:05:38.988Z,109.00
2023-08-11T09:06:39.525Z,109.00
2023-08-11T09:07:39.828Z,109.00
2023-08-11T09:08:40.104Z,109.00
2023-08-11T09:09:40.890Z,109.00
2023-08-11T09:10:41.469Z,109.00
2023-08-11T09:11:42.060Z,109.00
2023-08-11T09:12:42.715Z,109.00
2023-08-11T09:13:42.742Z,109.00
2023-08-11T09:14:43.193Z,109.00
2023-08-11T09:15:43.595Z,109.00
2023-08-11T09:16:44.007Z,109.00
2023-08-11T09:17:44.611Z,109.00
2023-08-11T09:18:44.943Z,109.00
2023-08-11T09:19:45.845Z,109.00
2023-08-11T09:20:46.349Z,109.00
2023-08-11T09:21:46.990Z,109.00
2023-08-11T09:22:47.047Z,109.00
2023-08-11T09:23:47.549Z,109.00
2023-08-11T09:24:48.044Z,109.00
2023-08-11T09:25:48.890Z,109.00
2023-08-11T09:26:49.585Z,109.00
2023-08-11T09:27:49.898Z,109.00
2023-08-11T09:28:50.381Z,109.00
2023-08-11T09:29:50.964Z,109.00
2023-08-11T09:30:51.438Z,109.00
2023-08-11T09:31:51.960Z,109.00
2023-08-11T09:32:52.378Z,109.00
2023-08-11T09:33:52.605Z,109.00
2023-08-11T09:34:52.943Z,109.00
2023-08-11T09:35:53.385Z,109.00
2023-08-11T09:36:02.093Z,109.00
2023-08-11T09:37:02.367Z,109.00
2023-08-11T09:38:02.683Z,109.00
2023-08-11T09:39:03.583Z,109.00
2023-08-11T09:40:04.237Z,109.00
2023-08-11T09:41:05.039Z,109.00
2023-08-11T09:42:05.453Z,109.00
2023-08-11T09:43:05.827Z,109.00
2023-08-11T09:44:06.618Z,109.00
2023-08-11T09:45:07.325Z,109.00
2023-08-11T09:46:07.492Z,109.00
2023-08-11T09:47:15.756Z,109.00
2023-08-11T09:48:08.301Z,109.00
2023-08-11T09:49:08.174Z,109.00
2023-08-11T09:50:09.050Z,109.00
2023-08-11T09:51:09.687Z,109.00
2023-08-11T09:52:10.258Z,109.00
2023-08-11T09:53:10.456Z,109.00
2023-08-11T09:54:10.506Z,109.00
2023-08-11T09:55:10.930Z,109.00
2023-08-11T09:56:11.505Z,109.00
2023-08-11T09:57:11.898Z,109.00
2023-08-11T09:58:12.306Z,109.00
2023-08-11T09:59:12.859Z,109.00
2023-08-11T10:00:13.307Z,109.00
2023-08-11T10:01:20.496Z,109.00
2023-08-11T10:02:14.569Z,109.00
2023-08-11T10:03:15.380Z,109.00
2023-08-11T10:04:15.702Z,109.00
2023-08-11T10:05:16.287Z,109.00
2023-08-11T10:06:16.894Z,109.00
2023-08-11T10:07:17.337Z,109.00
2023-08-11T10:07:29.132Z,109.00
2023-08-11T10:08:29.937Z,109.00
2023-08-11T10:09:30.830Z,109.00
2023-08-11T10:10:31.119Z,109.00
2023-08-11T10:11:31.877Z,109.00
2023-08-11T10:12:32.590Z,109.00
2023-08-11T10:13:32.986Z,109.00
2023-08-11T10:14:34.383Z,109.00
2023-08-11T10:15:34.042Z,109.00
2023-08-11T10:16:34.602Z,109.00
2023-08-11T10:17:35.281Z,109.00
2023-08-11T10:18:35.506Z,109.00
2023-08-11T10:19:35.963Z,109.00
2023-08-11T10:20:36.442Z,109.00
2023-08-11T10:21:36.655Z,109.00
2023-08-11T10:22:37.153Z,109.00
2023-08-11T10:23:37.266Z,109.00
2023-08-11T10:24:37.515Z,109.00
2023-08-11T10:25:37.861Z,108.67
2023-08-11T10:26:38.347Z,108.70
2023-08-11T10:27:38.868Z,106.27
2023-08-11T10:28:39.372Z,109.00
2023-08-11T10:29:40.192Z,109.00
2023-08-11T10:30:40.687Z,104.97
2023-08-11T10:31:41.648Z,105.13
2023-08-11T10:32:41.898Z,105.42
2023-08-11T10:33:42.364Z,102.02
2023-08-11T10:34:42.891Z,98.18
2023-08-11T10:35:43.592Z,97.11
2023-08-11T10:36:44.163Z,97.80
2023-08-11T10:37:45.005Z,95.15
2023-08-11T10:38:45.319Z,98.02
2023-08-11T10:39:45.656Z,98.03
2023-08-11T10:39:56.991Z,97.98
2023-08-11T10:40:56.405Z,98.38
2023-08-11T10:41:57.279Z,97.65
2023-08-11T10:42:58.106Z,97.32
2023-08-11T10:43:58.890Z,97.33
2023-08-11T10:44:59.634Z,96.59
2023-08-11T10:46:00.328Z,96.11
2023-08-11T10:47:01.424Z,97.31
2023-08-11T10:48:01.606Z,97.57
2023-08-11T10:49:02.108Z,96.95
2023-08-11T10:50:02.620Z,98.76
2023-08-11T10:51:02.934Z,102.49
2023-08-11T10:52:03.778Z,99.45
2023-08-11T10:53:04.107Z,103.57
2023-08-11T10:54:04.437Z,105.35
2023-08-11T10:55:05.249Z,106.40
2023-08-11T10:56:05.774Z,103.05
2023-08-11T10:57:06.526Z,102.15
2023-08-11T10:58:06.963Z,101.24
2023-08-11T10:59:07.524Z,104.84
2023-08-11T11:00:08.329Z,107.16
2023-08-11T11:01:08.921Z,105.20
2023-08-11T11:02:09.588Z,106.43
2023-08-11T11:03:09.784Z,101.00
2023-08-11T11:04:10.180Z,99.57
2023-08-11T11:05:11.968Z,99.49
2023-08-11T11:06:11.440Z,100.23
2023-08-11T11:07:12.029Z,106.07
2023-08-11T11:08:12.349Z,106.15
2023-08-11T11:08:23.060Z,103.55
2023-08-11T11:09:23.881Z,103.44
2023-08-11T11:10:27.702Z,104.10
2023-08-11T11:11:27.710Z,105.80
2023-08-11T11:12:56.924Z,103.96
2023-08-11T11:13:57.292Z,103.62
2023-08-11T11:14:58.049Z,106.26
2023-08-11T11:15:58.903Z,101.18
2023-08-11T11:16:59.493Z,101.52
2023-08-11T11:18:00.155Z,99.84
2023-08-11T11:19:00.482Z,100.66
2023-08-11T11:20:03.216Z,102.67
2023-08-11T11:21:01.276Z,104.94
2023-08-11T11:22:01.802Z,101.60
2023-08-11T11:23:02.301Z,105.97
2023-08-11T11:24:02.675Z,105.35
2023-08-11T11:25:03.189Z,106.54
2023-08-11T11:26:03.504Z,107.03
2023-08-11T11:27:03.820Z,106.02
2023-08-11T11:28:04.762Z,106.83
2023-08-11T11:29:04.952Z,107.54
2023-08-11T11:30:05.338Z,103.94
2023-08-11T11:31:06.185Z,108.12
2023-08-11T11:32:06.956Z,106.33
2023-08-11T11:33:07.787Z,104.22
2023-08-11T11:34:07.353Z,102.81
2023-08-11T11:35:07.755Z,97.75
2023-08-11T11:36:08.104Z,97.17
2023-08-11T11:37:08.772Z,98.00
2023-08-11T11:38:09.762Z,103.35
2023-08-11T11:39:10.625Z,106.90
2023-08-11T11:40:10.789Z,104.08
2023-08-11T11:41:10.890Z,106.12
2023-08-11T11:42:11.572Z,102.52
2023-08-11T11:43:11.708Z,101.82
2023-08-11T11:44:12.458Z,105.58
2023-08-11T11:44:21.200Z,106.41
2023-08-11T11:45:21.383Z,106.75
2023-08-11T11:46:22.333Z,107.30
2023-08-11T11:47:22.396Z,104.34
2023-08-11T11:48:22.389Z,101.50
2023-08-11T11:49:29.917Z,102.63
2023-08-11T11:50:23.083Z,106.03
2023-08-11T11:51:23.485Z,103.99
2023-08-11T11:52:23.898Z,102.98
2023-08-11T11:53:24.421Z,98.81
2023-08-11T11:54:27.030Z,98.09
2023-08-11T11:55:25.585Z,99.39
2023-08-11T11:57:11.942Z,95.33
2023-08-11T11:58:11.447Z,95.33
2023-08-11T11:59:11.820Z,98.14
2023-08-11T12:00:11.819Z,96.75
2023-08-11T12:01:12.553Z,98.77
2023-08-11T12:02:13.936Z,96.47
2023-08-11T12:03:14.064Z,96.68
2023-08-11T12:04:14.317Z,98.40
2023-08-11T12:05:14.759Z,101.24
2023-08-11T12:06:15.503Z,99.64
2023-08-11T12:07:16.374Z,101.04
2023-08-11T12:08:16.546Z,102.60
2023-08-11T12:09:17.023Z,100.60
2023-08-11T12:10:17.969Z,103.25
2023-08-11T12:11:18.250Z,105.70
2023-08-11T12:12:19.189Z,100.68
2023-08-11T12:13:19.569Z,101.92
2023-08-11T12:14:19.639Z,104.14
2023-08-11T12:15:20.600Z,98.98
2023-08-11T12:16:20.960Z,100.77
2023-08-11T12:17:21.373Z,99.83
2023-08-11T12:18:22.197Z,96.54
2023-08-11T12:19:22.909Z,99.33
2023-08-11T12:20:22.890Z,100.15
2023-08-11T12:21:23.716Z,101.87
2023-08-11T12:22:24.077Z,104.90
2023-08-11T12:23:24.382Z,99.24
2023-08-11T12:24:24.781Z,100.37
2023-08-11T12:25:25.635Z,100.22
2023-08-11T12:26:26.711Z,103.23
2023-08-11T12:27:27.134Z,98.17
2023-08-11T12:28:26.293Z,97.46
2023-08-11T12:28:50.377Z,95.37
2023-08-11T12:29:50.106Z,95.29
2023-08-11T12:30:51.010Z,96.32
2023-08-11T12:31:51.818Z,97.39
2023-08-11T12:32:52.797Z,95.67
2023-08-11T12:33:53.279Z,94.53
2023-08-11T12:54:09.918Z,99.40
2023-08-11T12:55:10.765Z,99.22
2023-08-11T12:56:11.614Z,100.88
2023-08-11T12:57:11.820Z,100.19
2023-08-11T12:58:18.584Z,100.81
2023-08-11T12:59:14.635Z,101.33
2023-08-11T13:00:13.162Z,101.06
2023-08-11T13:01:17.005Z,101.08
2023-08-11T13:02:15.917Z,98.26
2023-08-11T13:03:16.925Z,96.25
2023-08-11T13:04:18.786Z,95.99
2023-08-11T13:05:16.631Z,92.73
2023-08-11T13:06:18.519Z,92.04
2023-08-11T13:07:18.383Z,93.22
2023-08-11T13:08:19.619Z,91.43
2023-08-11T13:09:20.695Z,91.63
2023-08-11T13:10:19.880Z,89.55
2023-08-11T13:11:22.757Z,90.12
2023-08-11T13:12:20.582Z,92.18
2023-08-11T13:13:21.477Z,93.91
2023-08-11T13:14:59.214Z,96.84
2023-08-11T13:16:43.413Z,95.79
2023-08-11T13:17:41.100Z,95.81
2023-08-11T13:19:14.470Z,94.16
2023-08-11T13:20:11.271Z,94.24
2023-08-11T13:21:11.956Z,87.49
2023-08-11T13:22:11.332Z,92.35
2023-08-11T13:23:11.946Z,92.62
2023-08-11T13:24:12.085Z,96.57
2023-08-11T13:25:12.280Z,96.87
2023-08-11T13:26:13.751Z,94.81
2023-08-11T13:27:13.574Z,95.99
2023-08-11T13:28:15.497Z,93.64
2023-08-11T13:29:14.742Z,94.59
2023-08-11T13:30:15.688Z,96.54
2023-08-11T13:31:15.950Z,92.97
2023-08-11T13:32:16.601Z,93.17
2023-08-11T13:33:17.513Z,90.70
2023-08-11T13:34:18.478Z,91.91
2023-08-11T13:35:18.419Z,92.65
2023-08-11T13:36:19.198Z,91.33
2023-08-11T13:37:19.185Z,92.67
2023-08-11T13:38:20.064Z,92.13
2023-08-11T13:38:32.689Z,90.83
2023-08-11T13:39:32.865Z,90.93
2023-08-11T13:40:33.089Z,93.59
2023-08-11T13:41:33.828Z,92.03
2023-08-11T13:42:34.010Z,91.16
2023-08-11T13:43:35.981Z,90.99
2023-08-11T13:44:35.842Z,94.35
2023-08-11T13:45:36.325Z,91.79
2023-08-11T13:46:37.056Z,92.29
2023-08-11T13:47:43.364Z,92.89
2023-08-11T13:48:39.159Z,96.10
2023-08-11T13:49:40.112Z,89.40
2023-08-11T13:50:39.994Z,92.26
2023-08-11T13:51:41.046Z,98.87
2023-08-11T13:52:40.944Z,97.07
2023-08-11T13:53:41.745Z,97.97
2023-08-11T13:54:42.706Z,99.54
2023-08-11T13:55:42.844Z,102.06
2023-08-11T13:56:38.046Z,96.53
2023-08-11T13:57:38.209Z,95.19
2023-08-11T13:58:39.016Z,98.25
2023-08-11T13:59:39.918Z,100.28
2023-08-11T14:00:41.539Z,98.57
2023-08-11T14:01:40.474Z,98.31
2023-08-11T14:02:41.269Z,97.70
2023-08-11T14:03:41.454Z,97.19
2023-08-11T14:04:45.018Z,94.62
2023-08-11T14:05:42.745Z,95.82
2023-08-11T14:08:17.055Z,91.49
2023-08-11T14:09:17.219Z,91.04
2023-08-11T14:10:18.137Z,91.11
2023-08-11T14:11:19.002Z,93.31
2023-08-11T14:12:19.654Z,99.89
2023-08-11T14:13:19.843Z,101.04
2023-08-11T14:14:20.987Z,95.00
2023-08-11T14:15:20.899Z,98.50
2023-08-11T14:16:22.663Z,97.54
2023-08-11T14:17:21.727Z,95.44
2023-08-11T14:18:23.580Z,93.03
2023-08-11T14:19:23.420Z,95.98
2023-08-11T14:20:24.287Z,95.17
2023-08-11T14:21:24.439Z,93.19
2023-08-11T14:21:40.661Z,92.91
2023-08-11T14:22:40.537Z,92.80
2023-08-11T14:23:41.362Z,96.18
2023-08-11T14:24:41.913Z,93.96
2023-08-11T14:25:42.270Z,94.31
2023-08-11T14:26:43.076Z,94.83
2023-08-11T14:27:43.274Z,95.41
2023-08-11T14:28:44.024Z,96.26
2023-08-11T14:29:44.064Z,94.93
2023-08-11T14:30:44.139Z,95.11
2023-08-11T14:31:44.534Z,95.48
2023-08-11T14:32:44.988Z,96.76
2023-08-11T14:33:45.050Z,96.13
2023-08-11T14:35:53.424Z,94.20
2023-08-11T14:36:56.946Z,93.80
2023-08-11T14:38:57.935Z,95.30
2023-08-11T14:41:27.762Z,95.79
2023-08-11T14:42:27.376Z,95.89
2023-08-11T14:43:27.653Z,97.07
2023-08-11T14:44:28.463Z,100.55
2023-08-11T14:45:28.476Z,100.35
2023-08-11T14:46:28.804Z,95.17
2023-08-11T14:47:32.268Z,95.62
2023-08-11T14:48:30.346Z,96.04
2023-08-11T14:49:31.144Z,93.18
2023-08-11T14:50:32.044Z,96.36
2023-08-11T14:50:41.230Z,97.68
2023-08-11T14:51:41.026Z,97.74
2023-08-11T14:52:41.189Z,99.27
2023-08-11T14:53:41.977Z,96.92
2023-08-11T14:54:42.256Z,96.14
2023-08-11T14:56:49.809Z,97.05
2023-08-11T14:57:50.601Z,97.16
2023-08-11T14:58:50.592Z,96.52
2023-08-11T14:59:51.223Z,95.09
2023-08-11T15:00:51.752Z,95.84
2023-08-11T15:01:52.496Z,97.59
2023-08-11T15:02:53.488Z,96.85
2023-08-11T15:03:54.417Z,96.42
2023-08-11T15:04:54.704Z,97.59
2023-08-11T15:05:55.119Z,98.37
2023-08-11T15:06:56.159Z,97.58
2023-08-11T15:07:56.287Z,96.53
2023-08-11T15:08:56.687Z,96.87
2023-08-11T15:09:57.237Z,96.55
2023-08-11T15:10:57.529Z,97.67
2023-08-11T15:11:57.773Z,98.44
2023-08-11T15:12:57.987Z,98.03
2023-08-11T15:13:58.704Z,97.83
2023-08-11T15:14:58.778Z,97.19
2023-08-11T15:15:59.416Z,97.11
2023-08-11T15:17:00.266Z,96.46
2023-08-11T15:18:00.308Z,93.14
2023-08-11T15:19:00.789Z,92.83
2023-08-11T15:20:01.439Z,92.51
2023-08-11T15:21:01.856Z,93.98
2023-08-11T15:22:02.001Z,91.84
2023-08-11T15:23:02.844Z,93.05
2023-08-11T15:23:17.374Z,94.00
2023-08-11T15:24:17.130Z,94.38
2023-08-11T15:25:17.262Z,93.46
2023-08-11T15:26:18.167Z,91.78
2023-08-11T15:27:18.673Z,91.82
2023-08-11T15:28:18.924Z,92.90
2023-08-11T15:29:19.206Z,93.21
2023-08-11T15:30:20.178Z,96.16
2023-08-11T15:31:20.518Z,94.28
2023-08-11T15:32:21.685Z,94.90
2023-08-11T15:33:21.881Z,96.56
2023-08-11T15:34:22.665Z,94.57
2023-08-11T15:35:23.508Z,92.30
2023-08-11T15:36:23.552Z,91.95
2023-08-11T15:37:24.545Z,93.62
2023-08-11T15:38:25.059Z,95.85
2023-08-11T15:39:25.844Z,94.66
2023-08-11T15:40:26.484Z,93.37
2023-08-11T15:41:27.437Z,95.88
2023-08-11T15:42:27.903Z,95.42
2023-08-11T15:43:28.881Z,94.37
2023-08-11T15:44:29.799Z,96.48
2023-08-11T15:45:30.763Z,94.94
2023-08-11T15:46:30.948Z,95.77
2023-08-11T15:47:31.164Z,96.63
2023-08-11T15:48:31.236Z,97.90
2023-08-11T15:49:32.857Z,95.34
2023-08-11T15:50:31.986Z,94.40
2023-08-11T15:50:40.712Z,93.61
2023-08-11T15:51:40.849Z,93.17
2023-08-11T15:52:41.327Z,91.94
2023-08-11T15:53:41.518Z,91.32
2023-08-11T15:54:42.237Z,91.22
2023-08-11T15:55:42.715Z,93.53
2023-08-11T15:56:43.107Z,95.17
2023-08-11T15:58:10.959Z,94.34
2023-08-11T15:59:11.522Z,94.36
2023-08-11T16:00:11.801Z,92.63
2023-08-11T16:01:44.201Z,92.58
2023-08-11T16:02:43.335Z,92.59
2023-08-11T16:03:43.497Z,92.14
2023-08-11T16:04:43.388Z,91.89
2023-08-11T16:05:43.504Z,91.09
2023-08-11T16:06:43.635Z,91.33
2023-08-11T16:07:46.834Z,91.16
2023-08-11T16:08:45.418Z,90.71
2023-08-11T16:09:44.933Z,92.86
2023-08-11T16:10:45.389Z,91.90
2023-08-11T16:11:46.340Z,91.74
2023-08-11T16:12:46.530Z,94.11
2023-08-11T16:13:47.400Z,93.84
2023-08-11T16:14:47.558Z,95.51
2023-08-11T16:15:48.518Z,95.24
2023-08-11T16:16:49.191Z,93.05
2023-08-11T16:17:49.636Z,92.91
2023-08-11T16:18:50.183Z,91.66
2023-08-11T16:19:50.528Z,92.86
2023-08-11T16:20:50.600Z,92.84
2023-08-11T16:21:51.658Z,92.49
2023-08-11T16:22:50.968Z,93.68
2023-08-11T16:23:51.728Z,94.05
2023-08-11T16:24:51.986Z,92.51
2023-08-11T16:25:52.340Z,92.78
2023-08-11T16:26:53.821Z,94.69
2023-08-11T16:27:53.649Z,93.47
2023-08-11T16:28:53.723Z,92.79
2023-08-11T16:29:54.266Z,94.09
2023-08-11T16:30:54.585Z,93.81
2023-08-11T16:31:07.287Z,94.66
2023-08-11T16:32:07.600Z,94.85
2023-08-11T16:33:08.408Z,95.14
2023-08-11T16:34:08.980Z,95.99
2023-08-11T16:35:09.158Z,96.68
2023-08-11T16:36:09.471Z,96.18
2023-08-11T16:37:09.878Z,93.39
2023-08-11T16:38:10.145Z,94.37
2023-08-11T16:39:10.728Z,93.24
2023-08-11T16:40:11.103Z,95.23
2023-08-11T16:41:11.562Z,95.41
2023-08-11T16:42:20.037Z,95.96
2023-08-11T16:43:13.082Z,94.96
2023-08-11T16:44:13.800Z,95.05
2023-08-11T16:45:14.034Z,94.82
2023-08-11T16:46:14.543Z,93.96
2023-08-11T16:47:04.159Z,95.59
2023-08-11T16:48:04.954Z,94.88
2023-08-11T16:49:05.752Z,94.70
2023-08-11T16:50:06.714Z,93.95
2023-08-11T16:51:07.716Z,93.45
2023-08-11T16:52:06.716Z,93.30
2023-08-11T16:53:06.947Z,94.31
2023-08-11T16:54:08.728Z,94.66
2023-08-11T16:55:07.817Z,92.97
2023-08-11T16:56:08.085Z,93.59
2023-08-11T16:57:08.895Z,94.47
2023-08-11T16:58:09.697Z,94.60
2023-08-11T16:59:11.600Z,94.70
2023-08-11T17:00:11.451Z,94.58
2023-08-11T17:01:12.362Z,94.93
2023-08-11T17:02:13.360Z,95.20
2023-08-11T17:03:14.467Z,94.61
2023-08-11T17:10:10.780Z,92.89
2023-08-11T17:18:56.696Z,92.65
2023-08-11T17:23:41.212Z,94.85
2023-08-11T17:28:45.955Z,94.13
2023-08-11T17:29:46.232Z,91.55
2023-08-11T17:34:40.218Z,102.38
2023-08-11T17:39:17.136Z,109.00
2023-08-11T17:40:18.410Z,109.00
2023-08-11T17:41:20.209Z,105.74
2023-08-11T17:42:18.882Z,104.33
2023-08-11T17:43:19.698Z,106.47
2023-08-11T17:44:19.900Z,106.33
2023-08-11T17:45:20.778Z,104.22
2023-08-11T17:46:21.715Z,103.21
2023-08-11T17:46:39.685Z,102.74
2023-08-11T17:47:39.456Z,102.63
2023-08-11T17:49:20.424Z,105.39
2023-08-11T17:50:21.191Z,105.63
2023-08-11T17:51:21.273Z,105.62
2023-08-11T17:52:22.108Z,108.47
2023-08-11T17:53:22.170Z,106.53
2023-08-11T17:54:22.299Z,108.01
2023-08-11T17:55:23.141Z,108.65
2023-08-11T17:56:23.971Z,107.81
2023-08-11T17:57:24.781Z,107.77
2023-08-11T17:58:25.266Z,109.00
2023-08-11T17:59:08.533Z,109.00
2023-08-11T18:00:09.476Z,109.00
2023-08-11T18:01:10.403Z,109.00
2023-08-11T18:02:11.492Z,109.00
2023-08-11T18:03:12.188Z,109.00
2023-08-11T18:04:12.144Z,109.00
2023-08-11T18:05:12.306Z,109.00
2023-08-11T18:06:13.221Z,109.00
2023-08-11T18:07:15.007Z,109.00
2023-08-11T18:08:14.797Z,109.00
2023-08-11T18:09:15.146Z,109.00
2023-08-11T18:10:15.556Z,109.00
2023-08-11T18:11:15.668Z,109.00
2023-08-11T18:12:16.325Z,109.00
2023-08-11T18:13:17.179Z,109.00
2023-08-11T18:14:17.299Z,109.00
2023-08-11T18:15:18.922Z,109.00
2023-08-11T18:16:18.201Z,109.00
2023-08-11T18:17:19.041Z,109.00
2023-08-11T18:18:19.270Z,109.00
2023-08-11T18:19:20.084Z,109.00
2023-08-11T18:19:35.092Z,109.00
2023-08-11T18:20:35.959Z,109.00
2023-08-11T18:21:38.834Z,109.00
2023-08-11T18:22:36.262Z,109.00
2023-08-11T18:23:36.439Z,109.00
2023-08-11T18:24:37.227Z,109.00
2023-08-11T18:25:38.235Z,109.00
2023-08-11T18:26:39.053Z,109.00
2023-08-11T18:27:39.885Z,109.00
2023-08-11T18:28:41.079Z,109.00
2023-08-11T18:29:40.781Z,109.00
2023-08-11T18:30:43.507Z,109.00
2023-08-11T18:31:42.252Z,109.00
2023-08-11T18:32:46.037Z,109.00
2023-08-11T18:33:43.942Z,109.00
2023-08-11T18:34:44.855Z,109.00
2023-08-11T18:35:45.714Z,109.00
2023-08-11T18:36:46.641Z,109.00
2023-08-11T18:37:00.292Z,109.00
2023-08-11T18:38:00.707Z,109.00
2023-08-11T18:39:01.532Z,109.00
2023-08-11T18:40:02.390Z,109.00
2023-08-11T18:41:02.494Z,109.00
2023-08-11T18:42:03.421Z,109.00
2023-08-11T18:43:04.245Z,109.00
2023-08-11T18:45:19.917Z,109.00
2023-08-11T19:00:13.237Z,109.00
2023-08-11T19:01:13.315Z,109.00
2023-08-11T19:03:01.085Z,109.00
2023-08-11T19:04:01.390Z,109.00
2023-08-11T19:05:02.232Z,109.00
2023-08-11T19:06:02.216Z,109.00
2023-08-11T19:07:02.997Z,109.00
2023-08-11T19:08:04.947Z,109.00
2023-08-11T19:09:15.077Z,109.00
2023-08-11T19:10:12.702Z,109.00
2023-08-11T19:12:07.175Z,109.00
2023-08-11T19:12:16.018Z,109.00
2023-08-11T19:14:50.499Z,109.00
2023-08-11T19:16:13.483Z,109.00
2023-08-11T19:17:11.972Z,109.00
2023-08-11T19:18:16.802Z,109.00
2023-08-11T19:19:50.455Z,109.00
2023-08-11T19:20:43.192Z,109.00
2023-08-11T19:21:08.257Z,109.00
2023-08-11T19:22:05.735Z,109.00
2023-08-11T19:25:03.447Z,109.00
2023-08-11T19:25:44.342Z,109.00
2023-08-11T19:33:59.817Z,109.00
2023-08-11T19:34:53.224Z,109.00
2023-08-11T19:36:01.300Z,109.00
2023-08-11T19:38:54.000Z,109.00
2023-08-11T19:38:54.271Z,109.00
2023-08-11T19:40:57.517Z,109.00
2023-08-11T19:41:59.628Z,109.00
2023-08-11T19:42:58.158Z,109.00
2023-08-11T19:44:00.379Z,109.00
2023-08-11T19:44:56.655Z,109.00
2023-08-11T19:46:56.994Z,109.00
2023-08-11T19:49:42.928Z,109.00
2023-08-11T19:50:05.660Z,109.00
2023-08-11T19:51:57.015Z,109.00
2023-08-11T19:53:00.088Z,109.00
2023-08-11T19:54:59.039Z,109.00
2023-08-11T19:56:00.557Z,109.00
2023-08-11T19:56:57.221Z,109.00
2023-08-11T19:57:08.005Z,109.00
2023-08-11T19:58:01.449Z,109.00
2023-08-11T19:59:10.436Z,109.00
2023-08-11T20:00:02.573Z,109.00
2023-08-11T20:08:06.428Z,109.00
2023-08-11T20:10:07.400Z,109.00
2023-08-11T20:11:17.064Z,109.00
2023-08-11T20:13:11.854Z,109.00
2023-08-11T20:14:10.533Z,109.00
2023-08-11T20:15:13.270Z,109.00
2023-08-11T20:16:31.775Z,109.00
2023-08-11T20:17:12.733Z,109.00
2023-08-11T20:18:14.640Z,109.00
2023-08-11T20:20:50.203Z,109.00
2023-08-11T20:22:22.763Z,109.00
2023-08-11T20:22:45.283Z,109.00
2023-08-11T20:23:47.850Z,109.00
2023-08-11T20:25:55.695Z,109.00
2023-08-11T20:27:48.788Z,109.00
2023-08-11T20:28:27.155Z,109.00
2023-08-11T20:29:52.094Z,109.00
2023-08-11T20:30:51.962Z,109.00
2023-08-11T20:31:50.263Z,109.00
2023-08-11T20:34:15.466Z,109.00
2023-08-11T20:36:19.362Z,109.00
2023-08-11T20:38:26.275Z,109.00
2023-08-11T20:39:23.841Z,109.00
2023-08-11T20:40:24.674Z,109.00
2023-08-11T20:41:25.296Z,109.00
2023-08-11T20:42:26.009Z,109.00
2023-08-11T20:43:58.099Z,109.00
2023-08-11T20:44:58.746Z,109.00
2023-08-11T20:45:59.327Z,109.00
2023-08-11T20:47:00.086Z,109.00
2023-08-11T20:48:01.252Z,109.00
2023-08-11T20:49:01.285Z,109.00
2023-08-11T20:50:01.721Z,109.00
2023-08-11T20:51:05.342Z,109.00
2023-08-11T20:52:03.454Z,109.00
2023-08-11T20:53:04.621Z,109.00
2023-08-11T20:54:04.446Z,109.00
2023-08-11T21:01:09.891Z,109.00
2023-08-11T21:02:47.391Z,109.00
2023-08-11T21:04:29.234Z,109.00
2023-08-11T21:05:29.506Z,109.00
2023-08-11T21:07:00.298Z,109.00
2023-08-11T21:08:00.531Z,109.00
2023-08-11T21:10:14.282Z,109.00
2023-08-11T21:11:12.133Z,109.00
2023-08-11T21:12:12.960Z,109.00
2023-08-11T21:13:13.784Z,109.00
2023-08-11T21:14:14.301Z,109.00
2023-08-11T21:15:14.927Z,109.00
2023-08-11T21:16:15.724Z,109.00
2023-08-11T21:17:17.166Z,109.00
2023-08-11T21:18:15.884Z,109.00
2023-08-11T21:19:16.028Z,109.00
2023-08-11T21:20:16.078Z,109.00
2023-08-11T21:21:16.809Z,109.00
2023-08-11T21:22:17.579Z,109.00
2023-08-11T21:23:20.427Z,109.00
2023-08-11T21:24:18.829Z,109.00
2023-08-11T21:25:19.254Z,109.00
2023-08-11T21:26:20.081Z,109.00
2023-08-11T21:26:31.774Z,109.00
2023-08-11T21:27:32.731Z,109.00
2023-08-11T21:28:32.997Z,109.00
2023-08-11T21:29:33.829Z,109.00
2023-08-11T21:30:34.652Z,109.00
2023-08-11T21:31:36.077Z,109.00
2023-08-11T21:32:36.818Z,109.00
2023-08-11T21:33:36.652Z,109.00
2023-08-11T21:34:37.480Z,109.00
2023-08-11T21:35:37.860Z,109.00
2023-08-11T21:36:37.995Z,109.00
2023-08-11T21:37:38.299Z,109.00
2023-08-11T21:38:39.192Z,109.00
2023-08-11T21:38:53.851Z,109.00
2023-08-11T21:39:51.492Z,109.00
2023-08-11T21:40:51.712Z,109.00
2023-08-11T21:41:52.650Z,109.00
2023-08-11T21:42:52.967Z,109.00
2023-08-11T21:43:53.515Z,109.00
2023-08-11T21:44:54.042Z,109.00
2023-08-11T21:45:54.251Z,109.00
2023-08-11T21:46:54.672Z,109.00
2023-08-11T21:47:55.127Z,109.00
2023-08-11T21:48:55.687Z,109.00
2023-08-11T21:49:56.129Z,109.00
2023-08-11T21:50:56.679Z,109.00
2023-08-11T21:51:56.799Z,109.00
2023-08-11T21:52:59.844Z,109.00
2023-08-11T21:53:58.585Z,109.00
2023-08-11T21:54:59.471Z,109.00
2023-08-11T21:55:58.493Z,109.00
2023-08-11T21:56:59.347Z,109.00
2023-08-11T21:58:00.104Z,109.00
2023-08-11T21:59:02.041Z,109.00
2023-08-11T22:00:01.261Z,109.00
2023-08-11T22:00:15.189Z,109.00
2023-08-11T22:01:16.102Z,109.00
2023-08-11T22:02:16.500Z,109.00
2023-08-11T22:03:17.060Z,109.00
2023-08-11T22:04:17.202Z,109.00
2023-08-11T22:05:18.137Z,109.00
2023-08-11T22:06:18.659Z,109.00
2023-08-11T22:07:19.314Z,109.00
2023-08-11T22:08:20.132Z,109.00
2023-08-11T22:09:21.195Z,109.00
2023-08-11T22:10:21.498Z,109.00
2023-08-11T22:11:35.780Z,109.00
2023-08-11T22:12:23.573Z,109.00
2023-08-11T22:13:24.302Z,109.00
2023-08-11T22:14:23.651Z,109.00
2023-08-11T22:15:24.797Z,109.00
2023-08-11T22:16:25.307Z,109.00
2023-08-11T22:17:26.072Z,109.00
2023-08-11T22:17:46.322Z,109.00
2023-08-11T22:18:46.890Z,109.00
2023-08-11T22:19:48.297Z,109.00
2023-08-11T22:20:48.098Z,109.00
2023-08-11T22:21:48.984Z,109.00